createdAt,value
2022-10-19T00:01:23.318Z,9.50
2022-10-19T00:03:54.628Z,9.23
2022-10-19T00:06:32.029Z,9.23
2022-10-19T00:09:14.889Z,9.43
2022-10-19T00:11:45.787Z,9.13
2022-10-19T00:14:18.680Z,8.80
2022-10-19T00:16:48.738Z,8.50
2022-10-19T00:19:21.163Z,8.33
2022-10-19T00:24:18.255Z,8.40
2022-10-19T00:26:45.662Z,8.43
2022-10-19T00:29:15.042Z,8.70
2022-10-19T00:31:43.068Z,9.33
2022-10-19T00:34:10.616Z,8.27
2022-10-19T00:36:41.896Z,8.10
2022-10-19T00:39:14.224Z,8.37
2022-10-19T00:41:42.872Z,8.33
2022-10-19T00:44:13.324Z,8.07
2022-10-19T00:46:44.130Z,8.10
2022-10-19T00:49:34.254Z,7.73
2022-10-19T00:52:16.829Z,7.77
2022-10-19T00:54:47.678Z,8.13
2022-10-19T00:57:15.672Z,8.17
2022-10-19T00:59:44.945Z,7.77
2022-10-19T01:02:12.809Z,8.13
2022-10-19T01:04:46.279Z,7.90
2022-10-19T01:07:14.611Z,7.70
2022-10-19T01:09:42.044Z,8.67
2022-10-19T01:12:30.954Z,8.40
2022-10-19T01:15:22.759Z,8.40
2022-10-19T01:18:07.906Z,8.57
2022-10-19T01:21:12.805Z,8.37
2022-10-19T01:24:39.808Z,8.43
2022-10-19T01:27:40.888Z,9.43
2022-10-19T01:30:19.910Z,8.73
2022-10-19T01:33:04.851Z,9.37
2022-10-19T01:35:40.627Z,9.03
2022-10-19T01:38:22.208Z,9.47
2022-10-19T01:41:11.316Z,9.87
2022-10-19T01:44:01.194Z,9.40
2022-10-19T01:46:40.601Z,10.00
2022-10-19T01:49:17.026Z,9.33
2022-10-19T01:51:53.883Z,10.43
2022-10-19T01:54:23.040Z,9.60
2022-10-19T01:56:52.165Z,10.17
2022-10-19T01:59:21.622Z,9.60
2022-10-19T02:01:51.239Z,8.97
2022-10-19T02:04:22.028Z,8.93
2022-10-19T02:06:52.541Z,9.63
2022-10-19T02:09:20.486Z,9.67
2022-10-19T02:11:57.041Z,9.10
2022-10-19T02:14:33.463Z,9.70
2022-10-19T02:17:07.802Z,10.07
2022-10-19T02:19:35.564Z,10.17
2022-10-19T02:22:03.568Z,9.83
2022-10-19T02:24:31.130Z,10.10
2022-10-19T02:27:00.862Z,10.30
2022-10-19T02:29:28.714Z,10.20
2022-10-19T02:31:56.221Z,9.93
2022-10-19T02:34:23.658Z,10.27
2022-10-19T02:36:51.270Z,10.90
2022-10-19T02:39:18.816Z,10.77
2022-10-19T02:42:18.456Z,10.10
2022-10-19T02:45:07.557Z,10.43
2022-10-19T02:47:45.567Z,10.40
2022-10-19T02:50:14.270Z,11.33
2022-10-19T02:52:42.358Z,10.70
2022-10-19T02:55:10.120Z,10.77
2022-10-19T02:57:37.877Z,11.50
2022-10-19T03:00:09.483Z,10.50
2022-10-19T03:02:37.009Z,10.73
2022-10-19T03:05:05.486Z,10.77
2022-10-19T03:07:33.169Z,10.23
2022-10-19T03:10:00.907Z,10.80
2022-10-19T03:12:28.681Z,9.80
2022-10-19T03:14:56.223Z,10.83
2022-10-19T03:17:23.666Z,10.23
2022-10-19T03:19:51.733Z,10.80
2022-10-19T03:22:19.136Z,10.47
2022-10-19T03:24:46.546Z,10.80
2022-10-19T03:27:14.007Z,10.67
2022-10-19T03:29:41.442Z,10.33
2022-10-19T03:32:08.827Z,10.70
2022-10-19T03:34:36.327Z,11.07
2022-10-19T03:37:03.753Z,10.87
2022-10-19T03:39:31.235Z,10.03
2022-10-19T03:41:58.710Z,10.43
2022-10-19T03:44:26.310Z,10.43
2022-10-19T03:46:53.734Z,11.07
2022-10-19T03:49:21.248Z,10.43
2022-10-19T03:51:48.953Z,10.57
2022-10-19T03:54:17.490Z,10.37
2022-10-19T03:56:45.176Z,10.80
2022-10-19T03:59:16.059Z,11.30
2022-10-19T04:01:46.178Z,10.73
2022-10-19T04:04:17.458Z,11.90
2022-10-19T04:06:48.037Z,10.70
2022-10-19T04:09:19.809Z,11.00
2022-10-19T04:11:48.110Z,10.70
2022-10-19T04:14:27.129Z,11.27
2022-10-19T04:17:04.663Z,10.70
2022-10-19T04:19:32.520Z,10.87
2022-10-19T04:22:00.161Z,9.57
2022-10-19T04:24:28.450Z,10.00
2022-10-19T04:26:57.067Z,10.83
2022-10-19T04:29:29.738Z,10.10
2022-10-19T04:31:57.679Z,9.87
2022-10-19T04:34:25.255Z,11.03
2022-10-19T04:36:54.085Z,10.13
2022-10-19T04:39:21.508Z,11.07
2022-10-19T04:41:48.936Z,10.57
2022-10-19T04:44:16.431Z,10.20
2022-10-19T04:46:43.843Z,10.47
2022-10-19T04:49:11.621Z,12.07
2022-10-19T04:51:40.612Z,12.37
2022-10-19T04:54:08.110Z,10.83
2022-10-19T04:56:35.549Z,11.43
2022-10-19T04:59:03.030Z,10.70
2022-10-19T05:01:31.823Z,11.50
2022-10-19T05:04:02.102Z,11.13
2022-10-19T05:06:31.493Z,11.27
2022-10-19T05:09:00.142Z,10.57
2022-10-19T05:11:28.164Z,10.90
2022-10-19T05:13:57.577Z,10.17
2022-10-19T05:16:26.017Z,10.83
2022-10-19T05:18:59.814Z,10.20
2022-10-19T05:21:29.126Z,9.43
2022-10-19T05:23:57.695Z,8.93
2022-10-19T05:26:27.987Z,8.53
2022-10-19T05:29:01.986Z,7.73
2022-10-19T05:31:32.843Z,8.03
2022-10-19T05:34:01.142Z,7.60
2022-10-19T05:36:34.838Z,7.00
2022-10-19T05:39:09.644Z,6.67
2022-10-19T05:41:37.086Z,6.87
2022-10-19T05:44:05.876Z,7.10
2022-10-19T05:46:34.327Z,6.37
2022-10-19T05:49:02.008Z,6.50
2022-10-19T05:51:29.560Z,6.00
2022-10-19T05:53:58.064Z,5.90
2022-10-19T05:56:30.062Z,5.30
2022-10-19T05:59:00.640Z,4.90
2022-10-19T06:01:29.741Z,4.80
2022-10-19T06:03:59.120Z,4.40
2022-10-19T06:06:27.781Z,3.97
2022-10-19T06:08:56.986Z,4.53
2022-10-19T06:11:28.789Z,4.10
2022-10-19T06:13:59.416Z,3.40
2022-10-19T06:16:27.734Z,3.60
2022-10-19T06:18:56.120Z,3.63
2022-10-19T06:21:27.814Z,3.50
2022-10-19T06:23:58.862Z,3.00
2022-10-19T06:26:28.237Z,3.00
2022-10-19T06:29:00.273Z,3.13
2022-10-19T06:31:36.478Z,3.07
2022-10-19T06:34:04.993Z,3.03
2022-10-19T06:36:32.870Z,2.80
2022-10-19T06:39:02.110Z,2.60
2022-10-19T06:41:32.012Z,2.60
2022-10-19T06:43:59.482Z,2.97
2022-10-19T06:46:28.317Z,2.90
2022-10-19T06:49:02.081Z,2.90
2022-10-19T06:51:32.136Z,3.03
2022-10-19T06:53:59.801Z,3.27
2022-10-19T06:56:27.684Z,3.10
2022-10-19T06:58:55.789Z,3.40
2022-10-19T07:01:24.402Z,3.10
2022-10-19T07:03:52.741Z,3.40
2022-10-19T07:06:20.932Z,2.70
2022-10-19T07:08:48.834Z,3.20
2022-10-19T07:11:19.230Z,2.83
2022-10-19T07:13:47.342Z,2.70
2022-10-19T07:16:21.256Z,2.63
2022-10-19T07:18:52.397Z,3.07
2022-10-19T07:21:22.507Z,2.93
2022-10-19T07:23:50.407Z,2.83
2022-10-19T07:26:27.999Z,2.67
2022-10-19T07:28:58.869Z,3.00
2022-10-19T07:31:28.301Z,2.80
2022-10-19T07:34:01.466Z,2.83
2022-10-19T07:36:31.394Z,2.40
2022-10-19T07:38:59.020Z,3.00
2022-10-19T07:41:27.634Z,2.60
2022-10-19T07:43:55.773Z,2.83
2022-10-19T07:46:27.363Z,2.67
2022-10-19T07:48:55.522Z,2.63
2022-10-19T07:51:23.771Z,2.40
2022-10-19T07:53:51.590Z,2.60
2022-10-19T07:56:25.171Z,2.40
2022-10-19T07:58:56.381Z,2.73
2022-10-19T08:01:31.740Z,2.70
2022-10-19T08:06:49.519Z,2.70
2022-10-19T08:09:33.776Z,2.77
2022-10-19T08:12:06.474Z,2.30
2022-10-19T08:14:34.253Z,2.50
2022-10-19T08:17:02.256Z,3.13
2022-10-19T08:19:29.790Z,2.90
2022-10-19T08:21:57.215Z,2.90
2022-10-19T08:24:24.801Z,2.60
2022-10-19T08:26:52.977Z,2.10
2022-10-19T08:29:21.420Z,2.70
2022-10-19T08:31:49.732Z,2.27
2022-10-19T08:34:17.843Z,2.47
2022-10-19T08:36:45.601Z,2.30
2022-10-19T08:39:14.558Z,2.20
2022-10-19T08:41:59.612Z,2.00
2022-10-19T08:44:45.546Z,1.90
2022-10-19T08:47:32.811Z,1.97
2022-10-19T08:50:00.867Z,2.30
2022-10-19T08:52:34.948Z,1.90
2022-10-19T08:55:09.307Z,1.80
2022-10-19T08:57:54.132Z,2.33
2022-10-19T09:00:58.077Z,1.80
2022-10-19T09:04:01.847Z,1.47
2022-10-19T09:06:54.427Z,1.60
2022-10-19T09:09:22.120Z,1.60
2022-10-19T09:12:04.207Z,1.50
2022-10-19T09:15:01.205Z,1.77
2022-10-19T09:17:29.328Z,1.80
2022-10-19T09:19:59.275Z,1.63
2022-10-19T09:22:35.532Z,1.77
2022-10-19T09:25:25.607Z,1.50
2022-10-19T09:28:38.805Z,1.80
2022-10-19T09:31:22.946Z,1.47
2022-10-19T09:33:57.509Z,1.20
2022-10-19T09:36:49.386Z,1.00
2022-10-19T09:39:18.098Z,0.90
2022-10-19T09:41:52.936Z,1.03
2022-10-19T09:44:20.952Z,5.93
2022-10-19T09:46:54.012Z,1.50
2022-10-19T09:49:49.023Z,1.20
2022-10-19T09:52:38.118Z,1.30
2022-10-19T09:55:20.660Z,1.10
2022-10-19T09:57:52.107Z,1.37
2022-10-19T10:00:26.843Z,0.90
2022-10-19T10:02:56.563Z,1.10
2022-10-19T10:05:32.967Z,1.03
2022-10-19T10:08:00.682Z,0.87
2022-10-19T10:10:42.585Z,1.30
2022-10-19T10:13:21.622Z,0.80
2022-10-19T10:15:57.238Z,0.60
2022-10-19T10:18:26.021Z,0.70
2022-10-19T10:21:06.019Z,0.60
2022-10-19T10:23:36.813Z,0.47
2022-10-19T10:26:06.663Z,0.60
2022-10-19T10:28:34.448Z,0.53
2022-10-19T10:31:09.251Z,0.90
2022-10-19T10:33:44.927Z,1.10
2022-10-19T10:36:13.577Z,0.70
2022-10-19T10:38:53.393Z,1.03
2022-10-19T10:41:23.542Z,0.63
2022-10-19T10:44:06.939Z,0.90
2022-10-19T10:47:02.281Z,0.70
2022-10-19T10:49:42.755Z,1.80
2022-10-19T10:52:16.418Z,1.00
2022-10-19T10:55:08.591Z,0.60
2022-10-19T10:57:45.497Z,0.80
2022-10-19T11:00:22.222Z,0.60
2022-10-19T11:03:02.241Z,0.90
2022-10-19T11:05:35.095Z,1.07
2022-10-19T11:08:26.845Z,1.00
2022-10-19T11:11:06.459Z,1.00
2022-10-19T11:14:26.480Z,2.10
2022-10-19T11:16:58.304Z,1.37
2022-10-19T11:19:42.304Z,1.17
2022-10-19T11:22:23.680Z,0.80
2022-10-19T11:25:17.806Z,1.13
2022-10-19T11:28:19.977Z,1.07
2022-10-19T11:31:02.543Z,1.37
2022-10-19T11:34:16.180Z,1.47
2022-10-19T11:36:51.031Z,0.90
2022-10-19T11:40:06.602Z,0.90
2022-10-19T11:43:33.885Z,0.90
2022-10-19T11:46:17.205Z,0.73
2022-10-19T11:49:31.378Z,0.70
2022-10-19T12:31:32.943Z,1.30
2022-10-19T12:34:33.272Z,1.40
2022-10-19T12:37:24.218Z,1.20
2022-10-19T12:40:03.419Z,1.10
2022-10-19T12:43:10.574Z,1.10
2022-10-19T12:46:23.837Z,1.10
2022-10-19T12:49:26.712Z,1.00
2022-10-19T12:51:56.857Z,0.90
2022-10-19T12:54:27.750Z,1.30
2022-10-19T12:56:58.387Z,0.90
2022-10-19T12:59:36.760Z,1.10
2022-10-19T13:02:25.089Z,1.17
2022-10-19T13:04:54.651Z,1.37
2022-10-19T13:07:22.365Z,1.20
2022-10-19T13:09:50.148Z,0.93
2022-10-19T13:12:33.032Z,1.00
2022-10-19T13:15:05.402Z,1.00
2022-10-19T13:17:40.985Z,1.10
2022-10-19T13:20:14.673Z,1.00
2022-10-19T13:22:46.293Z,1.00
2022-10-19T13:25:28.488Z,1.00
2022-10-19T13:28:01.889Z,1.20
2022-10-19T13:30:38.676Z,1.17
2022-10-19T13:33:31.528Z,1.10
2022-10-19T13:36:02.677Z,1.10
2022-10-19T13:38:51.258Z,1.10
2022-10-19T13:41:26.066Z,0.83
2022-10-19T13:44:14.551Z,0.90
2022-10-19T13:47:06.814Z,1.27
2022-10-19T13:50:39.375Z,1.40
2022-10-19T13:53:29.731Z,1.27
2022-10-19T13:56:09.613Z,1.43
2022-10-19T13:59:28.198Z,1.20
2022-10-19T14:02:49.058Z,0.87
2022-10-19T14:05:56.935Z,1.00
2022-10-19T14:09:08.547Z,1.20
2022-10-19T14:11:40.654Z,1.20
2022-10-19T14:14:10.657Z,1.30
2022-10-19T14:16:59.657Z,1.50
2022-10-19T14:19:41.050Z,1.40
2022-10-19T14:22:36.322Z,1.20
2022-10-19T14:25:08.154Z,0.90
2022-10-19T14:27:36.157Z,0.83
2022-10-19T14:30:04.785Z,0.90
2022-10-19T14:32:34.949Z,1.33
2022-10-19T14:35:21.144Z,1.17
2022-10-19T14:37:49.860Z,1.47
2022-10-19T14:40:34.539Z,1.10
2022-10-19T14:43:20.179Z,1.40
2022-10-19T14:46:07.854Z,1.30
2022-10-19T14:48:50.760Z,1.30
2022-10-19T14:51:41.639Z,1.40
2022-10-19T14:54:25.796Z,1.30
2022-10-19T14:57:02.380Z,1.30
2022-10-19T14:59:39.339Z,1.23
2022-10-19T15:02:38.914Z,1.30
2022-10-19T15:05:20.089Z,1.47
2022-10-19T15:07:48.308Z,1.60
2022-10-19T15:10:35.748Z,1.40
2022-10-19T15:13:06.909Z,1.30
2022-10-19T15:15:36.018Z,1.30
2022-10-19T15:18:06.910Z,1.37
2022-10-19T15:20:54.940Z,1.37
2022-10-19T15:23:44.230Z,1.00
2022-10-19T15:26:26.536Z,1.10
2022-10-19T15:29:07.110Z,1.20
2022-10-19T15:31:35.132Z,1.20
2022-10-19T15:34:04.253Z,1.07
2022-10-19T15:36:33.237Z,0.93
2022-10-19T15:39:17.903Z,1.07
2022-10-19T15:41:53.217Z,1.20
2022-10-19T15:44:43.606Z,1.40
2022-10-19T15:47:24.288Z,1.63
2022-10-19T15:49:58.819Z,1.20
2022-10-19T15:52:33.423Z,1.13
2022-10-19T15:55:02.140Z,1.60
2022-10-19T15:57:38.644Z,3.67
2022-10-19T16:00:18.148Z,2.90
2022-10-19T16:02:45.618Z,2.17
2022-10-19T16:05:13.159Z,2.00
2022-10-19T16:07:42.408Z,1.80
2022-10-19T16:10:21.381Z,2.70
2022-10-19T16:12:48.957Z,2.20
2022-10-19T16:15:22.640Z,2.10
2022-10-19T16:17:54.671Z,2.10
2022-10-19T16:20:24.022Z,2.30
2022-10-19T16:22:51.858Z,2.40
2022-10-19T16:25:20.313Z,2.33
2022-10-19T16:27:47.871Z,3.20
2022-10-19T16:30:15.432Z,2.80
2022-10-19T16:35:15.421Z,2.60
2022-10-19T16:37:43.044Z,2.13
2022-10-19T16:40:11.067Z,5.57
2022-10-19T16:42:38.801Z,4.90
2022-10-19T16:45:06.921Z,5.20
2022-10-19T16:47:34.846Z,5.73
2022-10-19T16:50:05.590Z,8.23
2022-10-19T16:52:33.590Z,6.23
2022-10-19T16:55:01.429Z,7.00
2022-10-19T16:57:28.966Z,7.33
2022-10-19T16:59:56.485Z,7.07
2022-10-19T17:02:24.140Z,6.30
2022-10-19T17:04:51.980Z,5.30
2022-10-19T17:07:19.819Z,5.27
2022-10-19T17:09:49.691Z,5.63
2022-10-19T17:12:20.012Z,6.23
2022-10-19T17:15:02.969Z,6.60
2022-10-19T17:17:43.045Z,5.80
2022-10-19T17:20:11.544Z,6.90
2022-10-19T17:22:38.979Z,9.10
2022-10-19T17:25:06.964Z,9.60
2022-10-19T17:27:34.402Z,11.20
2022-10-19T17:30:02.093Z,10.53
2022-10-19T17:32:29.594Z,10.97
2022-10-19T17:34:57.154Z,7.87
2022-10-19T17:37:24.747Z,4.90
2022-10-19T17:39:52.435Z,3.73
2022-10-19T17:42:19.840Z,3.70
2022-10-19T17:44:48.365Z,3.83
2022-10-19T17:47:15.818Z,3.40
2022-10-19T17:49:43.269Z,3.20
2022-10-19T17:52:10.707Z,3.33
2022-10-19T17:54:48.613Z,3.63
2022-10-19T17:57:26.337Z,4.37
2022-10-19T17:59:55.115Z,7.70
2022-10-19T18:02:22.530Z,12.27
2022-10-19T18:04:50.055Z,16.63
2022-10-19T18:07:17.587Z,15.00
2022-10-19T18:09:45.017Z,13.20
2022-10-19T18:12:13.625Z,12.13
2022-10-19T18:14:43.242Z,10.10
2022-10-19T18:17:11.487Z,7.57
2022-10-19T18:19:38.972Z,8.77
2022-10-19T18:22:06.536Z,8.07
2022-10-19T18:24:34.888Z,7.60
2022-10-19T18:27:02.420Z,11.27
2022-10-19T18:29:29.861Z,8.27
2022-10-19T18:31:57.498Z,7.17
2022-10-19T18:34:26.818Z,6.87
2022-10-19T18:36:54.621Z,7.53
2022-10-19T18:39:22.812Z,7.87
2022-10-19T18:41:54.685Z,6.53
2022-10-19T18:44:26.458Z,13.50
2022-10-19T18:46:55.934Z,8.60
2022-10-19T18:49:24.372Z,6.80
2022-10-19T18:51:55.164Z,5.90
2022-10-19T18:54:26.591Z,5.07
2022-10-19T18:56:55.506Z,5.93
2022-10-19T18:59:23.251Z,6.37
2022-10-19T19:01:50.912Z,6.20
2022-10-19T19:04:18.541Z,10.07
2022-10-19T19:06:46.039Z,11.10
2022-10-19T19:09:14.074Z,12.00
2022-10-19T19:11:41.758Z,9.40
2022-10-19T19:14:14.875Z,7.50
2022-10-19T19:16:44.703Z,6.30
2022-10-19T19:19:14.722Z,7.57
2022-10-19T19:21:44.700Z,7.87
2022-10-19T19:24:19.795Z,8.90
2022-10-19T19:26:52.303Z,10.70
2022-10-19T19:29:21.643Z,11.10
2022-10-19T19:31:49.481Z,9.23
2022-10-19T19:34:17.322Z,7.30
2022-10-19T19:36:48.901Z,9.90
2022-10-19T19:39:19.589Z,9.00
2022-10-19T19:41:48.755Z,16.43
2022-10-19T19:44:17.010Z,8.63
2022-10-19T19:46:44.577Z,7.50
2022-10-19T19:49:12.168Z,7.10
2022-10-19T19:51:39.696Z,10.73
2022-10-19T19:54:07.274Z,15.53
2022-10-19T19:56:34.894Z,23.67
2022-10-19T19:59:05.203Z,14.90
2022-10-19T20:01:33.681Z,9.07
2022-10-19T20:06:37.582Z,8.57
2022-10-19T20:09:07.014Z,7.63
2022-10-19T20:11:37.272Z,8.73
2022-10-19T20:14:07.318Z,7.87
2022-10-19T20:16:34.816Z,9.00
2022-10-19T20:19:09.206Z,9.10
2022-10-19T20:21:37.388Z,9.03
2022-10-19T20:24:05.198Z,9.23
2022-10-19T20:26:33.064Z,7.83
2022-10-19T20:29:03.705Z,7.90
2022-10-19T20:31:33.723Z,7.03
2022-10-19T20:34:01.228Z,7.23
2022-10-19T20:36:29.019Z,6.93
2022-10-19T20:38:58.925Z,9.60
2022-10-19T20:41:28.852Z,11.00
2022-10-19T20:43:56.953Z,11.23
2022-10-19T20:46:28.498Z,11.03
2022-10-19T20:49:02.030Z,12.00
2022-10-19T20:51:32.927Z,12.77
2022-10-19T20:54:04.163Z,12.13
2022-10-19T20:56:35.798Z,10.70
2022-10-19T20:59:16.950Z,11.40
2022-10-19T21:01:46.066Z,9.23
2022-10-19T21:04:15.536Z,10.40
2022-10-19T21:06:49.176Z,8.27
2022-10-19T21:09:23.258Z,9.40
2022-10-19T21:11:52.361Z,11.63
2022-10-19T21:14:28.386Z,9.73
2022-10-19T21:17:00.873Z,10.10
2022-10-19T21:19:31.033Z,9.37
2022-10-19T21:22:02.468Z,9.43
2022-10-19T21:24:33.883Z,9.87
2022-10-19T21:27:05.284Z,8.00
2022-10-19T21:29:32.921Z,8.63
2022-10-19T21:32:00.446Z,10.03
2022-10-19T21:34:30.445Z,10.00
2022-10-19T21:36:58.248Z,13.13
2022-10-19T21:39:25.823Z,9.13
2022-10-19T21:41:53.229Z,7.10
2022-10-19T21:44:23.240Z,7.03
2022-10-19T21:46:51.133Z,7.30
2022-10-19T21:49:19.308Z,10.37
2022-10-19T21:51:53.949Z,10.23
2022-10-19T21:54:29.286Z,11.13
2022-10-19T21:56:58.561Z,9.67
2022-10-19T21:59:26.637Z,10.23
2022-10-19T22:01:55.377Z,12.93
2022-10-19T22:04:23.513Z,13.93
2022-10-19T22:06:51.122Z,12.10
2022-10-19T22:09:22.296Z,13.37
2022-10-19T22:11:49.741Z,11.87
2022-10-19T22:14:17.987Z,10.27
2022-10-19T22:16:45.689Z,10.03
2022-10-19T22:19:13.307Z,7.70
2022-10-19T22:21:41.011Z,8.60
2022-10-19T22:24:15.114Z,9.47
2022-10-19T22:26:47.348Z,9.60
2022-10-19T22:29:15.283Z,10.27
2022-10-19T22:31:43.392Z,10.50
2022-10-19T22:34:17.149Z,10.43
2022-10-19T22:36:45.753Z,10.03
2022-10-19T22:39:14.304Z,11.60
2022-10-19T22:41:41.737Z,10.93
2022-10-19T22:44:09.191Z,12.10
2022-10-19T22:46:36.674Z,11.60
2022-10-19T22:49:04.597Z,10.03
2022-10-19T22:51:32.178Z,9.47
2022-10-19T22:53:59.662Z,10.10
2022-10-19T22:56:27.874Z,11.43
2022-10-19T22:59:00.163Z,8.90
2022-10-19T23:01:28.677Z,10.17
2022-10-19T23:03:56.200Z,8.37
2022-10-19T23:06:23.736Z,8.60
2022-10-19T23:08:51.585Z,11.20
2022-10-19T23:11:19.074Z,8.47
2022-10-19T23:13:46.581Z,8.63
2022-10-19T23:16:14.173Z,8.00
2022-10-19T23:18:42.144Z,7.77
2022-10-19T23:21:13.406Z,7.57
2022-10-19T23:23:41.932Z,7.93
2022-10-19T23:26:16.486Z,7.53
2022-10-19T23:28:46.728Z,7.73
2022-10-19T23:31:21.213Z,7.53
2022-10-19T23:33:48.632Z,6.57
2022-10-19T23:36:24.032Z,6.80
2022-10-19T23:38:53.171Z,7.00
2022-10-19T23:41:21.675Z,7.63
2022-10-19T23:43:49.542Z,7.27
2022-10-19T23:46:17.222Z,10.27
2022-10-19T23:48:44.710Z,7.20
2022-10-19T23:51:16.356Z,7.33
2022-10-19T23:53:46.272Z,7.93
2022-10-19T23:56:23.705Z,7.70
2022-10-19T23:58:52.043Z,7.17
